Time;durP1;ratioP1;P1;durP2;ratioP2;P2;SDS_P1;SDS_P2;PMS_P1;PMS_P2;Temp;Humidity;BMP_temperature;BMP_pressure;BME280_temperature;BME280_humidity;BME280_pressure;Samples;Min_cycle;Max_cycle;Signal;HPM_P1;HPM_P2
2021/07/10 00:01:51;;;;;;;0.20;0.20;;;23.00;75.30;;;;;;4195396;28;20048;-49
2021/07/10 00:04:13;;;;;;;1.52;0.57;;;23.00;75.30;;;;;;4197752;28;20136;-50
2021/07/10 00:06:35;;;;;;;0.20;0.20;;;22.90;75.30;;;;;;4196707;28;20121;-52
2021/07/10 00:08:57;;;;;;;1.45;0.90;;;22.90;75.40;;;;;;4209234;28;20078;-50
2021/07/10 00:11:19;;;;;;;1.17;0.47;;;22.90;75.30;;;;;;4208968;28;20079;-50
2021/07/10 00:13:44;;;;;;;0.10;0.10;;;22.90;75.30;;;;;;4192097;28;20510;-53
2021/07/10 00:16:06;;;;;;;0.60;0.60;;;22.90;75.30;;;;;;4192029;28;20056;-52
2021/07/10 00:18:28;;;;;;;0.25;0.25;;;22.90;75.30;;;;;;4185366;28;20044;-51
2021/07/10 00:20:50;;;;;;;0.15;0.15;;;22.90;75.40;;;;;;4203970;28;20695;-50
2021/07/10 00:23:14;;;;;;;0.13;0.13;;;22.90;75.50;;;;;;4208703;28;20559;-53
2021/07/10 00:25:36;;;;;;;0.47;0.47;;;22.90;75.50;;;;;;4208685;28;20052;-50
2021/07/10 00:27:59;;;;;;;0.00;0.00;;;22.90;75.60;;;;;;4208870;28;20046;-54
2021/07/10 00:30:24;;;;;;;0.38;0.38;;;22.90;75.50;;;;;;4208462;28;20105;-53
2021/07/10 00:32:46;;;;;;;0.05;0.05;;;22.90;75.60;;;;;;4208405;28;20476;-48
2021/07/10 00:35:09;;;;;;;0.25;0.25;;;22.90;76.50;;;;;;4208593;28;20052;-50
2021/07/10 00:37:30;;;;;;;0.20;0.20;;;22.90;75.70;;;;;;4208471;28;20052;-53
2021/07/10 00:39:53;;;;;;;0.63;0.63;;;22.90;75.60;;;;;;4208203;28;20124;-51
2021/07/10 00:42:19;;;;;;;0.30;0.30;;;22.90;75.60;;;;;;4208622;28;20050;-52
2021/07/10 00:44:41;;;;;;;0.15;0.15;;;22.90;76.50;;;;;;4208718;28;20040;-50
2021/07/10 00:47:05;;;;;;;0.30;0.25;;;22.90;75.70;;;;;;4208344;28;20565;-53
2021/07/10 00:49:27;;;;;;;0.00;0.00;;;22.80;75.70;;;;;;4208315;28;20196;-50
2021/07/10 00:51:49;;;;;;;0.20;0.20;;;22.80;75.60;;;;;;4207318;28;20052;-51
2021/07/10 00:54:11;;;;;;;0.00;0.00;;;22.80;75.70;;;;;;4208574;28;20528;-51
2021/07/10 00:56:37;;;;;;;0.20;0.20;;;22.80;75.70;;;;;;4208393;28;20054;-51
2021/07/10 00:59:00;;;;;;;0.05;0.05;;;22.80;75.70;;;;;;4208120;28;20513;-49
2021/07/10 01:01:25;;;;;;;0.00;0.00;;;22.80;75.70;;;;;;4208515;28;20066;-49
2021/07/10 01:03:48;;;;;;;0.32;0.32;;;22.80;75.70;;;;;;4208281;28;20050;-50
2021/07/10 01:06:10;;;;;;;0.10;0.10;;;22.80;75.80;;;;;;4208104;28;20656;-54
2021/07/10 01:08:34;;;;;;;2.92;0.85;;;22.80;75.80;;;;;;4207814;28;20055;-53
2021/07/10 01:10:57;;;;;;;0.45;0.45;;;22.80;75.80;;;;;;4207871;28;20123;-48
2021/07/10 01:13:21;;;;;;;0.55;0.55;;;22.80;75.90;;;;;;4191733;28;20052;-50
2021/07/10 01:15:43;;;;;;;0.03;0.03;;;22.70;75.80;;;;;;4187612;28;20075;-51
2021/07/10 01:18:05;;;;;;;0.95;0.95;;;22.70;75.90;;;;;;4186313;28;20052;-53
2021/07/10 01:20:30;;;;;;;0.00;0.00;;;22.70;75.90;;;;;;4208039;28;20125;-50
2021/07/10 01:22:53;;;;;;;0.38;0.38;;;22.70;75.90;;;;;;4208157;28;20062;-53
2021/07/10 01:25:17;;;;;;;0.00;0.00;;;22.70;75.90;;;;;;4208347;28;20075;-55
2021/07/10 01:27:39;;;;;;;0.22;0.22;;;22.70;76.10;;;;;;4208194;28;20054;-54
2021/07/10 01:30:05;;;;;;;0.10;0.10;;;22.70;76.10;;;;;;4193025;27;20075;-54
2021/07/10 01:32:27;;;;;;;0.10;0.10;;;22.60;76.10;;;;;;4195557;27;20113;-53
2021/07/10 01:34:50;;;;;;;0.15;0.15;;;22.70;76.20;;;;;;4191690;28;20056;-51
2021/07/10 01:37:13;;;;;;;0.00;0.00;;;22.70;76.20;;;;;;4198729;27;20130;-53
2021/07/10 01:39:39;;;;;;;0.20;0.20;;;22.70;76.20;;;;;;4207903;28;20052;-53
2021/07/10 01:42:01;;;;;;;0.52;0.52;;;22.70;76.20;;;;;;4208047;28;20054;-50
2021/07/10 01:44:23;;;;;;;0.25;0.25;;;22.60;76.20;;;;;;4207985;28;20074;-53
2021/07/10 01:46:45;;;;;;;0.00;0.00;;;22.60;76.20;;;;;;4207711;28;20556;-54
2021/07/10 01:49:07;;;;;;;0.65;0.65;;;22.60;77.10;;;;;;4191150;28;20499;-55
2021/07/10 01:51:29;;;;;;;0.43;0.43;;;22.60;76.20;;;;;;4198211;28;20068;-55
2021/07/10 01:53:51;;;;;;;0.10;0.10;;;22.60;76.20;;;;;;4207571;28;20056;-52
2021/07/10 01:56:15;;;;;;;1.45;1.13;;;22.60;76.30;;;;;;4200830;27;20056;-54
2021/07/10 01:58:37;;;;;;;0.32;0.32;;;22.60;76.30;;;;;;4191043;27;20106;-52
2021/07/10 02:00:59;;;;;;;0.00;0.00;;;22.60;76.30;;;;;;4191333;28;20072;-55
2021/07/10 02:03:21;;;;;;;0.20;0.20;;;22.60;76.30;;;;;;4204081;28;20151;-54
2021/07/10 02:05:43;;;;;;;0.63;0.63;;;22.60;76.30;;;;;;4207974;28;20098;-50
2021/07/10 02:08:08;;;;;;;1.00;0.85;;;22.60;76.40;;;;;;4207602;28;20128;-51
2021/07/10 02:10:33;;;;;;;0.03;0.03;;;22.60;76.50;;;;;;4207501;28;20052;-54
2021/07/10 02:13:00;;;;;;;0.00;0.00;;;22.50;77.40;;;;;;4207793;28;20476;-52
2021/07/10 02:15:22;;;;;;;0.00;0.00;;;22.60;76.60;;;;;;4207346;28;20059;-55
2021/07/10 02:17:45;;;;;;;0.20;0.20;;;22.50;76.50;;;;;;4207578;28;20048;-52
2021/07/10 02:20:08;;;;;;;0.70;0.70;;;22.50;76.50;;;;;;4206528;28;20101;-54
2021/07/10 02:22:30;;;;;;;0.22;0.22;;;22.50;76.60;;;;;;4206553;28;20056;-54
2021/07/10 02:24:52;;;;;;;0.43;0.43;;;22.50;76.60;;;;;;4207411;28;20044;-55
2021/07/10 02:27:14;;;;;;;0.10;0.10;;;22.50;76.60;;;;;;4207050;28;20497;-53
2021/07/10 02:29:38;;;;;;;0.17;0.17;;;22.50;76.60;;;;;;4190848;28;20056;-53
2021/07/10 02:32:00;;;;;;;0.05;0.05;;;22.50;76.60;;;;;;4195002;28;20460;-51
2021/07/10 02:34:22;;;;;;;0.43;0.43;;;22.50;76.50;;;;;;4207494;28;20610;-51
2021/07/10 02:36:45;;;;;;;0.45;0.45;;;22.50;76.50;;;;;;4207624;28;20490;-50
2021/07/10 02:39:07;;;;;;;1.08;1.08;;;22.50;76.50;;;;;;4207407;28;20072;-50
2021/07/10 02:41:29;;;;;;;0.68;0.68;;;22.50;76.60;;;;;;4190620;28;20044;-51
2021/07/10 02:43:51;;;;;;;0.52;0.52;;;22.50;76.60;;;;;;4190519;28;20396;-49
2021/07/10 02:46:16;;;;;;;0.32;0.32;;;22.50;76.70;;;;;;4190577;28;20051;-51
2021/07/10 02:48:38;;;;;;;2.72;0.65;;;22.40;76.70;;;;;;4191934;28;20546;-54
2021/07/10 02:51:01;;;;;;;0.00;0.00;;;22.50;76.80;;;;;;4193252;28;20060;-56
2021/07/10 02:53:22;;;;;;;0.60;0.60;;;22.40;76.60;;;;;;4193305;28;20059;-51
2021/07/10 02:55:45;;;;;;;1.45;1.02;;;22.40;76.70;;;;;;4193274;28;20045;-49
2021/07/10 02:58:07;;;;;;;0.00;0.00;;;22.40;76.70;;;;;;4193538;28;20445;-51
2021/07/10 03:00:30;;;;;;;0.57;0.57;;;22.40;76.70;;;;;;4193214;28;20418;-51
2021/07/10 03:02:53;;;;;;;4.40;1.65;;;22.40;76.80;;;;;;4193398;28;20047;-50
2021/07/10 03:05:17;;;;;;;0.20;0.20;;;22.40;76.80;;;;;;4193555;28;20047;-50
2021/07/10 03:07:39;;;;;;;0.20;0.20;;;22.40;76.80;;;;;;4193527;28;20155;-49
2021/07/10 03:10:01;;;;;;;0.28;0.28;;;22.40;76.80;;;;;;4193127;28;20079;-51
2021/07/10 03:12:23;;;;;;;3.22;1.20;;;22.40;76.70;;;;;;4193209;28;20481;-49
2021/07/10 03:14:45;;;;;;;0.38;0.38;;;22.40;76.80;;;;;;4193170;28;20052;-51
2021/07/10 03:17:07;;;;;;;0.00;0.00;;;22.40;76.70;;;;;;4192998;28;20553;-53
2021/07/10 03:19:31;;;;;;;0.00;0.00;;;22.40;77.00;;;;;;4192929;28;20056;-58
2021/07/10 03:21:53;;;;;;;0.35;0.35;;;22.30;76.70;;;;;;4193318;28;20053;-54
2021/07/10 03:24:15;;;;;;;0.28;0.28;;;22.30;76.70;;;;;;4191919;28;20102;-51
2021/07/10 03:26:38;;;;;;;0.35;0.35;;;22.40;76.90;;;;;;4193063;28;20056;-54
2021/07/10 03:29:00;;;;;;;0.25;0.25;;;22.30;76.80;;;;;;4192955;28;20048;-52
2021/07/10 03:31:22;;;;;;;1.55;0.98;;;22.30;76.80;;;;;;4192925;28;20576;-49
2021/07/10 03:33:45;;;;;;;0.00;0.00;;;22.40;77.70;;;;;;4192871;28;20044;-51
2021/07/10 03:36:08;;;;;;;0.65;0.63;;;22.30;76.80;;;;;;4207054;28;20052;-54
2021/07/10 03:38:30;;;;;;;0.20;0.20;;;22.30;76.80;;;;;;4208396;28;20050;-52
2021/07/10 03:40:52;;;;;;;0.28;0.28;;;22.30;76.80;;;;;;4193106;28;20051;-54
2021/07/10 03:43:15;;;;;;;0.10;0.10;;;22.30;76.90;;;;;;4209213;28;20138;-51
2021/07/10 03:45:37;;;;;;;0.10;0.10;;;22.30;76.90;;;;;;4208956;28;20534;-54
2021/07/10 03:48:00;;;;;;;0.52;0.52;;;22.30;77.00;;;;;;4209360;28;20484;-54
2021/07/10 03:50:22;;;;;;;2.22;1.25;;;22.30;77.00;;;;;;4209490;28;20144;-53
2021/07/10 03:52:46;;;;;;;0.20;0.20;;;22.30;77.00;;;;;;4209416;28;20097;-52
2021/07/10 03:55:11;;;;;;;0.00;0.00;;;22.30;76.90;;;;;;4209347;28;20048;-52
2021/07/10 03:57:33;;;;;;;0.00;0.00;;;22.30;77.00;;;;;;4209195;28;20044;-51
2021/07/10 03:59:55;;;;;;;0.75;0.75;;;22.30;76.90;;;;;;4207055;28;20040;-52
2021/07/10 04:02:17;;;;;;;1.55;0.40;;;22.30;76.90;;;;;;4207284;28;20127;-50
2021/07/10 04:04:39;;;;;;;0.43;0.43;;;22.30;76.80;;;;;;4208999;28;20052;-49
2021/07/10 04:07:01;;;;;;;0.32;0.32;;;22.30;76.90;;;;;;4209120;28;20059;-53
2021/07/10 04:09:25;;;;;;;0.28;0.28;;;22.30;76.90;;;;;;4209563;28;20052;-54
2021/07/10 04:11:47;;;;;;;0.95;0.93;;;22.30;76.90;;;;;;4209449;28;20060;-52
2021/07/10 04:14:09;;;;;;;0.10;0.10;;;22.30;76.90;;;;;;4208943;28;20044;-54
2021/07/10 04:16:31;;;;;;;0.00;0.00;;;22.30;76.90;;;;;;4208893;28;20532;-53
2021/07/10 04:18:53;;;;;;;0.63;0.63;;;22.30;76.90;;;;;;4208789;28;20135;-51
2021/07/10 04:21:15;;;;;;;0.52;0.52;;;22.20;77.80;;;;;;4208820;28;20703;-53
2021/07/10 04:23:38;;;;;;;0.00;0.00;;;22.30;77.00;;;;;;4192136;28;20552;-52
2021/07/10 04:26:01;;;;;;;0.30;0.30;;;22.20;76.90;;;;;;4192291;28;20418;-53
2021/07/10 04:28:24;;;;;;;0.30;0.30;;;22.30;76.90;;;;;;4192020;28;20229;-51
2021/07/10 04:30:45;;;;;;;0.28;0.28;;;22.30;76.90;;;;;;4192651;28;20052;-49
2021/07/10 04:33:13;;;;;;;1.55;0.95;;;22.20;76.80;;;;;;4208469;28;20477;-50
2021/07/10 04:35:36;;;;;;;0.82;0.82;;;22.30;76.90;;;;;;4208492;28;20486;-51
2021/07/10 04:37:58;;;;;;;0.52;0.52;;;22.30;76.80;;;;;;4208713;28;20156;-50
2021/07/10 04:40:20;;;;;;;0.88;0.88;;;22.30;76.80;;;;;;4208624;28;20115;-51
2021/07/10 04:42:44;;;;;;;0.00;0.00;;;22.30;76.70;;;;;;4208569;28;20052;-53
2021/07/10 04:45:07;;;;;;;0.43;0.43;;;22.30;76.70;;;;;;4208526;28;20072;-53
2021/07/10 04:47:29;;;;;;;0.45;0.45;;;22.30;76.60;;;;;;4208287;28;20487;-51
2021/07/10 04:49:51;;;;;;;0.10;0.10;;;22.30;76.60;;;;;;4208591;28;20052;-51
2021/07/10 04:52:14;;;;;;;0.00;0.00;;;22.30;76.50;;;;;;4208370;28;20101;-51
2021/07/10 04:54:36;;;;;;;0.43;0.43;;;22.30;76.50;;;;;;4197865;27;20048;-52
2021/07/10 04:56:58;;;;;;;0.17;0.17;;;22.30;76.50;;;;;;4208322;28;20430;-49
2021/07/10 04:59:22;;;;;;;0.00;0.00;;;22.30;76.50;;;;;;4208257;28;20211;-50
2021/07/10 05:01:44;;;;;;;0.63;0.63;;;22.30;76.50;;;;;;4207973;28;20487;-49
2021/07/10 05:04:06;;;;;;;0.10;0.10;;;22.30;76.50;;;;;;4208236;28;20058;-49
2021/07/10 05:06:28;;;;;;;1.95;1.85;;;22.30;76.50;;;;;;4208317;28;20055;-50
2021/07/10 05:08:50;;;;;;;1.52;0.75;;;22.30;76.50;;;;;;4208088;28;20051;-51
2021/07/10 05:11:12;;;;;;;0.30;0.30;;;22.30;76.50;;;;;;4207585;28;20075;-51
2021/07/10 05:13:34;;;;;;;0.20;0.20;;;22.30;77.30;;;;;;4208332;28;20044;-48
2021/07/10 05:15:58;;;;;;;1.85;0.63;;;22.40;76.50;;;;;;4206455;28;20063;-51
2021/07/10 05:18:20;;;;;;;0.55;0.40;;;22.40;76.30;;;;;;4206199;28;20052;-50
2021/07/10 05:20:43;;;;;;;0.52;0.52;;;22.50;76.50;;;;;;4208360;28;20422;-53
2021/07/10 05:23:05;;;;;;;40.60;2.50;;;22.60;76.50;;;;;;4195298;28;20059;-51
2021/07/10 05:25:27;;;;;;;0.52;0.52;;;22.70;76.60;;;;;;4191130;28;20054;-51
2021/07/10 05:27:49;;;;;;;0.32;0.32;;;22.90;75.90;;;;;;4190969;28;20578;-52
2021/07/10 05:30:14;;;;;;;1.20;1.15;;;23.00;74.90;;;;;;4208210;28;20044;-50
2021/07/10 05:32:38;;;;;;;0.00;0.00;;;23.10;74.50;;;;;;4191428;28;20060;-51
2021/07/10 05:35:00;;;;;;;0.30;0.30;;;23.10;74.20;;;;;;4202586;28;20055;-51
2021/07/10 05:37:22;;;;;;;1.45;0.80;;;23.20;74.00;;;;;;4190536;28;20070;-48
2021/07/10 05:39:44;;;;;;;0.80;0.80;;;23.20;73.80;;;;;;4191188;28;20048;-48
2021/07/10 05:42:07;;;;;;;1.05;1.05;;;23.20;73.70;;;;;;4191180;28;20494;-48
2021/07/10 05:44:29;;;;;;;0.52;0.52;;;23.20;73.60;;;;;;4190637;28;20542;-48
2021/07/10 05:46:51;;;;;;;2.05;0.85;;;23.20;73.60;;;;;;4190704;28;20418;-48
2021/07/10 05:49:15;;;;;;;0.20;0.20;;;23.10;73.50;;;;;;4190989;28;20131;-52
2021/07/10 05:51:37;;;;;;;2.13;0.90;;;23.10;73.50;;;;;;4190962;28;20052;-51
2021/07/10 05:53:59;;;;;;;2.55;1.95;;;23.10;73.50;;;;;;4191027;28;20572;-47
2021/07/10 05:56:22;;;;;;;0.20;0.20;;;23.10;73.60;;;;;;4191106;28;20052;-50
2021/07/10 05:58:44;;;;;;;0.43;0.43;;;23.00;73.70;;;;;;4190626;28;20552;-50
2021/07/10 06:01:06;;;;;;;1.27;1.20;;;23.00;73.80;;;;;;4190982;28;20059;-50
2021/07/10 06:03:28;;;;;;;0.47;0.47;;;22.90;73.90;;;;;;4191058;28;20487;-49
2021/07/10 06:05:51;;;;;;;0.10;0.10;;;22.90;74.20;;;;;;4191270;28;20068;-50
2021/07/10 06:08:13;;;;;;;12.95;1.55;;;22.90;74.40;;;;;;4190719;28;20455;-51
2021/07/10 06:10:36;;;;;;;0.32;0.20;;;22.90;74.60;;;;;;4188842;28;20044;-48
2021/07/10 06:12:58;;;;;;;0.43;0.43;;;22.80;74.90;;;;;;4189780;28;20044;-51
2021/07/10 06:15:20;;;;;;;0.00;0.00;;;22.80;75.20;;;;;;4190699;28;20088;-46
2021/07/10 06:17:44;;;;;;;0.43;0.43;;;22.70;76.30;;;;;;4190963;28;20067;-51
2021/07/10 06:20:08;;;;;;;0.70;0.70;;;22.80;75.80;;;;;;4190816;28;20055;-51
2021/07/10 06:22:32;;;;;;;1.13;1.13;;;22.70;75.90;;;;;;4191938;28;20048;-49
2021/07/10 06:24:54;;;;;;;0.63;0.63;;;22.70;76.10;;;;;;4210689;28;20055;-46
2021/07/10 06:27:16;;;;;;;0.57;0.55;;;22.70;76.40;;;;;;4210858;28;20142;-49
2021/07/10 06:29:38;;;;;;;1.02;0.55;;;22.80;76.30;;;;;;4210078;28;20049;-48
2021/07/10 06:32:00;;;;;;;0.35;0.35;;;22.80;75.90;;;;;;4210655;28;20051;-51
2021/07/10 06:34:22;;;;;;;0.43;0.43;;;22.80;75.60;;;;;;4210324;28;20036;-48
2021/07/10 06:36:44;;;;;;;0.17;0.17;;;22.80;75.60;;;;;;4210425;27;20652;-52
2021/07/10 06:39:08;;;;;;;0.00;0.00;;;22.80;75.50;;;;;;4210691;28;20486;-50
2021/07/10 06:41:31;;;;;;;0.43;0.43;;;22.80;75.50;;;;;;4210375;28;20048;-47
2021/07/10 06:43:52;;;;;;;0.47;0.47;;;22.80;75.60;;;;;;4209926;28;20531;-46
2021/07/10 06:46:15;;;;;;;1.05;1.05;;;22.90;75.40;;;;;;4210457;28;20062;-46
2021/07/10 06:48:37;;;;;;;0.10;0.10;;;22.90;75.30;;;;;;4209738;28;20083;-47
2021/07/10 06:50:59;;;;;;;6.60;1.40;;;22.90;75.30;;;;;;4205838;28;20109;-49
2021/07/10 06:53:22;;;;;;;1.17;0.82;;;22.90;75.10;;;;;;4227236;27;20056;-50
2021/07/10 06:55:45;;;;;;;0.17;0.17;;;22.90;74.80;;;;;;4226877;28;20558;-49
2021/07/10 06:58:07;;;;;;;0.00;0.00;;;22.90;74.50;;;;;;4226587;27;20051;-48
2021/07/10 07:00:30;;;;;;;0.88;0.35;;;23.00;74.40;;;;;;4226034;27;20087;-53
2021/07/10 07:02:52;;;;;;;0.13;0.13;;;23.10;73.90;;;;;;4201760;28;20101;-49
2021/07/10 07:05:14;;;;;;;0.45;0.45;;;23.10;73.50;;;;;;4210250;28;20105;-50
2021/07/10 07:07:36;;;;;;;0.00;0.00;;;23.20;73.30;;;;;;4210015;28;20815;-48
2021/07/10 07:09:58;;;;;;;0.20;0.20;;;23.10;72.90;;;;;;4207259;27;20418;-51
2021/07/10 07:12:21;;;;;;;0.00;0.00;;;23.10;72.90;;;;;;4210039;28;20090;-50
2021/07/10 07:14:43;;;;;;;0.55;0.55;;;23.10;73.10;;;;;;4210005;28;20131;-55
2021/07/10 07:17:08;;;;;;;2.00;1.45;;;23.10;73.00;;;;;;4209201;28;20364;-49
2021/07/10 07:19:31;;;;;;;0.10;0.10;;;23.10;72.90;;;;;;4209854;28;20043;-49
2021/07/10 07:21:54;;;;;;;0.03;0.03;;;23.00;72.80;;;;;;4209891;28;20048;-51
2021/07/10 07:24:16;;;;;;;0.10;0.10;;;23.00;72.80;;;;;;4209870;28;20044;-50
2021/07/10 07:26:38;;;;;;;0.00;0.00;;;22.90;72.70;;;;;;4209417;28;20059;-50
2021/07/10 07:29:02;;;;;;;0.30;0.28;;;22.90;72.60;;;;;;4204960;28;20050;-48
2021/07/10 07:31:24;;;;;;;0.00;0.00;;;22.90;72.40;;;;;;4208995;28;20044;-50
2021/07/10 07:33:47;;;;;;;0.30;0.30;;;22.90;72.60;;;;;;4208901;28;20055;-49
2021/07/10 07:36:09;;;;;;;0.70;0.22;;;22.90;72.90;;;;;;4209712;28;20048;-50
2021/07/10 07:38:32;;;;;;;0.00;0.00;;;22.80;72.90;;;;;;4209948;28;20119;-47
2021/07/10 07:40:54;;;;;;;0.00;0.00;;;22.90;73.00;;;;;;4209394;28;20139;-51
2021/07/10 07:43:16;;;;;;;0.80;0.45;;;22.90;72.90;;;;;;4209064;28;20129;-52
2021/07/10 07:45:40;;;;;;;0.20;0.20;;;22.90;73.10;;;;;;4209342;28;20098;-53
2021/07/10 07:48:02;;;;;;;0.60;0.60;;;22.90;72.90;;;;;;4208847;28;20058;-51
2021/07/10 07:50:25;;;;;;;0.10;0.10;;;23.00;72.90;;;;;;4209477;28;20066;-49
2021/07/10 07:52:48;;;;;;;0.40;0.40;;;23.00;72.60;;;;;;4209123;28;20044;-47
2021/07/10 07:55:12;;;;;;;0.00;0.00;;;23.00;72.40;;;;;;4207907;28;20062;-47
2021/07/10 07:57:34;;;;;;;0.95;0.30;;;23.00;72.40;;;;;;4206475;28;20486;-53
2021/07/10 07:59:56;;;;;;;0.00;0.00;;;23.00;71.90;;;;;;4209390;28;20121;-47
2021/07/10 08:02:22;;;;;;;0.80;0.70;;;23.00;71.80;;;;;;4209074;28;20136;-50
2021/07/10 08:04:44;;;;;;;0.20;0.20;;;23.10;71.90;;;;;;4209042;28;20070;-48
2021/07/10 08:07:06;;;;;;;0.50;0.50;;;23.00;72.00;;;;;;4208440;28;20746;-50
2021/07/10 08:09:29;;;;;;;1.10;1.10;;;23.10;72.10;;;;;;4208402;28;20513;-49
2021/07/10 08:11:51;;;;;;;1.77;0.32;;;23.10;71.90;;;;;;4208403;28;20047;-52
2021/07/10 08:14:13;;;;;;;0.00;0.00;;;23.10;71.80;;;;;;4209032;28;20040;-50
2021/07/10 08:16:35;;;;;;;0.10;0.10;;;23.10;71.60;;;;;;4208117;28;20056;-51
2021/07/10 08:18:59;;;;;;;0.00;0.00;;;23.20;71.70;;;;;;4208934;28;20056;-53
2021/07/10 08:21:22;;;;;;;0.00;0.00;;;23.20;71.70;;;;;;4208473;28;20074;-51
2021/07/10 08:23:44;;;;;;;0.00;0.00;;;23.20;71.40;;;;;;4208677;28;20051;-47
2021/07/10 08:26:07;;;;;;;0.47;0.47;;;23.20;71.30;;;;;;4207562;28;20048;-48
2021/07/10 08:28:28;;;;;;;0.25;0.25;;;23.20;71.30;;;;;;4200613;28;20047;-45
2021/07/10 08:30:52;;;;;;;0.10;0.10;;;23.20;71.00;;;;;;4207194;28;20044;-48
2021/07/10 08:33:13;;;;;;;2.40;0.68;;;23.20;70.90;;;;;;4209005;28;20505;-47
2021/07/10 08:35:37;;;;;;;0.00;0.00;;;23.20;71.70;;;;;;4208441;28;20437;-48
2021/07/10 08:37:59;;;;;;;0.10;0.10;;;23.20;70.80;;;;;;4208110;28;20138;-49
2021/07/10 08:40:22;;;;;;;1.45;0.80;;;23.20;70.90;;;;;;4208203;28;20087;-48
2021/07/10 08:42:44;;;;;;;0.00;0.00;;;23.20;70.70;;;;;;4208410;28;20043;-49
2021/07/10 08:45:09;;;;;;;0.10;0.10;;;23.20;70.90;;;;;;4208067;28;20051;-52
2021/07/10 08:47:35;;;;;;;0.15;0.15;;;23.20;70.80;;;;;;4208111;28;20159;-50
2021/07/10 08:49:57;;;;;;;0.90;0.57;;;23.20;70.70;;;;;;4208498;28;20043;-50
2021/07/10 08:52:21;;;;;;;0.20;0.20;;;23.20;70.50;;;;;;4208072;28;20542;-51
2021/07/10 08:54:44;;;;;;;0.10;0.10;;;23.20;70.40;;;;;;4208418;28;20059;-50
2021/07/10 08:57:07;;;;;;;0.00;0.00;;;23.20;71.10;;;;;;4204144;28;20052;-50
2021/07/10 08:59:29;;;;;;;0.08;0.08;;;23.30;70.20;;;;;;4208085;28;20047;-48
2021/07/10 09:01:53;;;;;;;0.30;0.30;;;23.30;70.00;;;;;;4207626;28;20764;-48
2021/07/10 09:04:15;;;;;;;0.00;0.00;;;23.30;70.00;;;;;;4207794;28;20044;-48
2021/07/10 09:06:37;;;;;;;0.00;0.00;;;23.30;69.90;;;;;;4207987;28;20048;-48
2021/07/10 09:09:03;;;;;;;0.20;0.20;;;23.30;70.00;;;;;;4208112;28;20054;-48
2021/07/10 09:11:26;;;;;;;0.43;0.43;;;23.30;69.90;;;;;;4208152;28;20055;-49
2021/07/10 09:13:51;;;;;;;0.10;0.10;;;23.30;69.80;;;;;;4206634;28;20806;-49
2021/07/10 09:16:16;;;;;;;0.08;0.08;;;23.30;69.70;;;;;;4206633;28;20055;-50
2021/07/10 09:18:48;;;;;;;0.00;0.00;;;23.30;69.70;;;;;;4206389;28;20068;-48
2021/07/10 09:21:11;;;;;;;0.00;0.00;;;23.30;69.60;;;;;;4207576;28;20482;-47
2021/07/10 09:23:38;;;;;;;0.00;0.00;;;23.30;69.60;;;;;;4207667;28;20047;-50
2021/07/10 09:26:20;;;;;;;0.00;0.00;;;23.30;69.70;;;;;;4190881;27;20052;-48
2021/07/10 09:28:42;;;;;;;0.60;0.60;;;23.30;69.70;;;;;;4203806;28;20040;-48
2021/07/10 09:31:13;;;;;;;0.60;0.60;;;23.30;69.60;;;;;;4207416;27;20570;-50
2021/07/10 09:33:35;;;;;;;;;;;23.30;69.40;;;;;;4207704;27;20048;-49
2021/07/10 09:36:00;;;;;;;0.10;0.10;;;23.30;69.10;;;;;;4207497;27;20669;-50
2021/07/10 09:38:24;;;;;;;0.40;0.40;;;23.30;69.00;;;;;;4207748;28;20131;-52
2021/07/10 09:40:56;;;;;;;0.00;0.00;;;23.30;68.80;;;;;;4207463;28;20127;-46
2021/07/10 09:43:25;;;;;;;1.75;0.47;;;23.40;69.00;;;;;;4207617;28;20527;-50
2021/07/10 09:45:47;;;;;;;1.75;1.25;;;23.40;68.90;;;;;;4206920;28;20048;-49
2021/07/10 09:48:13;;;;;;;0.13;0.13;;;23.40;69.00;;;;;;4206977;28;20109;-49
2021/07/10 09:50:35;;;;;;;3.13;0.50;;;23.40;69.00;;;;;;4207779;28;20078;-49
2021/07/10 09:52:56;;;;;;;0.00;0.00;;;23.40;69.00;;;;;;4207863;28;20051;-50
2021/07/10 09:55:20;;;;;;;0.00;0.00;;;23.50;68.90;;;;;;4205643;28;20087;-47
2021/07/10 09:57:44;;;;;;;0.20;0.20;;;23.50;68.80;;;;;;4209175;28;20054;-53
2021/07/10 10:00:12;;;;;;;0.20;0.20;;;23.50;68.70;;;;;;4211080;28;20100;-51
2021/07/10 10:02:42;;;;;;;0.10;0.10;;;23.50;68.80;;;;;;4210702;28;20055;-53
2021/07/10 10:05:07;;;;;;;0.00;0.00;;;23.60;68.70;;;;;;4210449;28;20095;-51
2021/07/10 10:07:40;;;;;;;0.30;0.30;;;23.60;68.60;;;;;;4210797;28;20494;-51
2021/07/10 10:10:02;;;;;;;0.00;0.00;;;23.60;68.40;;;;;;4209062;28;20052;-51
2021/07/10 10:12:25;;;;;;;1.33;1.20;;;23.70;68.30;;;;;;4210367;28;20048;-49
2021/07/10 10:14:50;;;;;;;0.22;0.22;;;23.70;68.10;;;;;;4210663;28;20052;-51
2021/07/10 10:17:15;;;;;;;0.40;0.40;;;23.70;68.10;;;;;;4210255;28;20063;-50
2021/07/10 10:19:38;;;;;;;0.20;0.20;;;23.80;68.10;;;;;;4210682;28;20052;-51
2021/07/10 10:22:03;;;;;;;0.00;0.00;;;23.80;67.90;;;;;;4210847;28;20047;-50
2021/07/10 10:24:27;;;;;;;0.03;0.03;;;23.80;67.60;;;;;;4210377;28;20071;-46
2021/07/10 10:26:50;;;;;;;0.03;0.03;;;23.80;67.50;;;;;;4211083;28;20127;-51
2021/07/10 10:29:15;;;;;;;0.10;0.10;;;23.80;67.40;;;;;;4209970;28;20856;-49
2021/07/10 10:31:39;;;;;;;0.03;0.03;;;23.80;67.40;;;;;;4193850;28;20052;-50
2021/07/10 10:34:02;;;;;;;0.00;0.00;;;23.80;67.40;;;;;;4206427;28;20052;-48
2021/07/10 10:36:25;;;;;;;0.40;0.40;;;23.80;67.30;;;;;;4210528;28;20051;-52
2021/07/10 10:38:47;;;;;;;0.00;0.00;;;23.80;67.40;;;;;;4209916;28;20657;-48
2021/07/10 10:41:09;;;;;;;0.35;0.35;;;23.80;67.30;;;;;;4210261;28;20063;-49
2021/07/10 10:43:32;;;;;;;0.57;0.38;;;23.80;67.30;;;;;;4208914;28;20052;-51
2021/07/10 10:45:54;;;;;;;1.75;1.67;;;23.80;67.00;;;;;;4193605;28;20479;-49
2021/07/10 10:48:17;;;;;;;0.10;0.10;;;23.80;67.10;;;;;;4193515;28;20053;-49
2021/07/10 10:50:42;;;;;;;0.17;0.17;;;23.80;67.20;;;;;;4193359;28;20099;-50
2021/07/10 10:53:06;;;;;;;0.00;0.00;;;23.80;67.20;;;;;;4193463;28;20098;-50
2021/07/10 10:55:36;;;;;;;0.00;0.00;;;23.80;67.10;;;;;;4193512;28;20060;-48
2021/07/10 10:58:01;;;;;;;0.00;0.00;;;23.80;67.10;;;;;;4204626;28;20047;-51
2021/07/10 11:00:33;;;;;;;0.10;0.10;;;23.80;67.10;;;;;;4209528;28;20082;-49
2021/07/10 11:03:04;;;;;;;0.00;0.00;;;23.80;67.00;;;;;;4209825;28;20056;-51
2021/07/10 11:05:53;;;;;;;0.00;0.00;;;23.90;67.90;;;;;;4210310;28;20081;-52
2021/07/10 11:08:38;;;;;;;0.00;0.00;;;23.90;66.80;;;;;;4208949;28;20631;-49
2021/07/10 11:11:38;;;;;;;0.43;0.32;;;23.90;66.90;;;;;;4209566;28;20055;-48
2021/07/10 11:14:12;;;;;;;2.13;0.15;;;23.90;66.90;;;;;;4209478;28;20047;-47
2021/07/10 11:16:35;;;;;;;0.00;0.00;;;23.90;66.70;;;;;;4192802;28;20052;-53
2021/07/10 11:19:00;;;;;;;0.00;0.00;;;23.90;66.70;;;;;;4192923;28;20047;-49
2021/07/10 11:21:45;;;;;;;0.00;0.00;;;23.90;66.70;;;;;;4192800;28;20040;-50
2021/07/10 11:24:25;;;;;;;0.50;0.50;;;24.00;66.50;;;;;;4208203;28;20421;-50
2021/07/10 11:27:25;;;;;;;0.40;0.40;;;24.00;66.30;;;;;;4207735;28;20064;-52
2021/07/10 11:29:47;;;;;;;0.30;0.30;;;24.00;66.00;;;;;;4209001;28;20058;-51
2021/07/10 11:32:18;;;;;;;0.20;0.20;;;24.00;66.20;;;;;;4209391;28;20082;-52
2021/07/10 11:34:43;;;;;;;0.00;0.00;;;24.10;66.10;;;;;;4209325;28;20774;-51
2021/07/10 11:37:15;;;;;;;0.00;0.00;;;24.10;66.10;;;;;;4209233;28;20056;-52
2021/07/10 11:39:41;;;;;;;0.00;0.00;;;24.10;66.10;;;;;;4209410;28;20055;-50
2021/07/10 11:42:44;;;;;;;0.35;0.35;;;24.10;66.10;;;;;;4209106;28;20044;-48
2021/07/10 11:45:24;;;;;;;0.22;0.17;;;24.20;66.10;;;;;;4206187;28;20623;-50
2021/07/10 11:47:48;;;;;;;0.10;0.10;;;24.20;66.20;;;;;;4208785;28;20121;-51
2021/07/10 11:50:14;;;;;;;0.10;0.10;;;24.30;66.20;;;;;;4209116;28;20106;-50
2021/07/10 11:52:37;;;;;;;0.22;0.22;;;24.30;66.20;;;;;;4192725;28;20045;-51
2021/07/10 11:55:02;;;;;;;0.00;0.00;;;24.30;66.20;;;;;;4188541;28;20064;-48
2021/07/10 11:57:26;;;;;;;0.00;0.00;;;24.30;65.80;;;;;;4205818;28;20062;-45
2021/07/10 11:59:49;;;;;;;0.00;0.00;;;24.30;65.50;;;;;;4208877;28;20040;-51
2021/07/10 12:02:18;;;;;;;0.00;0.00;;;24.30;65.20;;;;;;4208867;28;20429;-49
2021/07/10 12:04:40;;;;;;;0.00;0.00;;;24.30;65.10;;;;;;4208746;27;20052;-47
2021/07/10 12:07:20;;;;;;;3.50;2.15;;;24.30;64.80;;;;;;4208625;28;20101;-48
2021/07/10 12:09:51;;;;;;;0.00;0.00;;;24.40;64.70;;;;;;4208872;28;20113;-51
2021/07/10 12:12:13;;;;;;;0.25;0.25;;;24.40;64.60;;;;;;4207997;28;20305;-52
2021/07/10 12:14:35;;;;;;;0.00;0.00;;;24.40;64.60;;;;;;4207996;28;20051;-53
2021/07/10 12:16:59;;;;;;;0.28;0.28;;;24.40;64.60;;;;;;4208589;28;20083;-51
2021/07/10 12:19:24;;;;;;;0.15;0.15;;;24.40;64.60;;;;;;4191823;28;20819;-48
2021/07/10 12:21:47;;;;;;;1.23;0.73;;;24.40;64.70;;;;;;4192110;28;20053;-49
2021/07/10 12:24:09;;;;;;;0.10;0.10;;;24.30;64.70;;;;;;4191532;28;20495;-50
2021/07/10 12:26:33;;;;;;;0.00;0.00;;;24.30;64.80;;;;;;4181145;28;20048;-51
2021/07/10 12:28:56;;;;;;;0.00;0.00;;;24.30;64.80;;;;;;4192454;28;20049;-48
2021/07/10 12:31:20;;;;;;;0.10;0.10;;;24.30;65.10;;;;;;4191499;28;20060;-49